Time;durP1;ratioP1;P1;durP2;ratioP2;P2;SDS_P1;SDS_P2;PMS_P1;PMS_P2;Temp;Humidity;BMP_temperature;BMP_pressure;BME280_temperature;BME280_humidity;BME280_pressure;Samples;Min_cycle;Max_cycle;Signal;HPM_P1;HPM_P2
2022/06/17 00:02:04;;;;;;;3.90;2.80;;;;;;;;;;5030229;28;20045;-43
2022/06/17 00:04:30;;;;;;;3.83;2.83;;;;;;;;;;5035081;28;20490;-43
2022/06/17 00:07:04;;;;;;;5.50;3.08;;;;;;;;;;5034161;28;20088;-42
2022/06/17 00:09:32;;;;;;;10.30;3.30;;;;;;;;;;5024663;28;20531;-44
2022/06/17 00:11:58;;;;;;;9.23;2.80;;;;;;;;;;5032125;28;20112;-43
2022/06/17 00:14:31;;;;;;;4.43;2.70;;;;;;;;;;5030572;28;20141;-44
2022/06/17 00:16:58;;;;;;;4.85;2.58;;;;;;;;;;5029883;28;20439;-45
2022/06/17 00:19:24;;;;;;;10.68;3.20;;;;;;;;;;5030347;28;20029;-47
2022/06/17 00:21:52;;;;;;;10.18;3.25;;;;;;;;;;5033110;28;20034;-44
2022/06/17 00:24:23;;;;;;;11.13;2.78;;;;;;;;;;5031516;28;20044;-43
2022/06/17 00:26:49;;;;;;;3.33;2.15;;;;;;;;;;5026973;28;20033;-48
2022/06/17 00:29:17;;;;;;;2.88;2.50;;;;;;;;;;5034526;28;20082;-43
2022/06/17 00:31:43;;;;;;;8.82;2.50;;;;;;;;;;5037022;28;20025;-49
2022/06/17 00:34:10;;;;;;;5.00;2.38;;;;;;;;;;5030134;28;20433;-43
2022/06/17 00:36:36;;;;;;;3.75;2.60;;;;;;;;;;5035483;28;20026;-45
2022/06/17 00:39:06;;;;;;;4.60;2.70;;;;;;;;;;5028090;28;20029;-46
2022/06/17 00:41:37;;;;;;;7.35;2.50;;;;;;;;;;5029937;28;20021;-43
2022/06/17 00:44:27;;;;;;;6.28;2.95;;;;;;;;;;5030240;28;20040;-43
2022/06/17 00:47:19;;;;;;;12.25;2.67;;;;;;;;;;5031901;28;20375;-41
2022/06/17 00:49:58;;;;;;;7.53;2.70;;;;;;;;;;5033766;28;20102;-43
2022/06/17 00:52:37;;;;;;;7.90;2.80;;;;;;;;;;5031017;28;20421;-44
2022/06/17 00:55:11;;;;;;;10.48;2.83;;;;;;;;;;5028221;28;20559;-44
2022/06/17 00:57:39;;;;;;;9.27;2.60;;;;;;;;;;5028970;28;20029;-44
2022/06/17 01:00:07;;;;;;;7.10;2.45;;;;;;;;;;5028402;28;20055;-44
2022/06/17 01:02:39;;;;;;;8.82;2.50;;;;;;;;;;5030239;28;20067;-43
2022/06/17 01:05:06;;;;;;;14.48;3.17;;;;;;;;;;5033893;28;20033;-42
2022/06/17 01:07:37;;;;;;;4.57;2.55;;;;;;;;;;5028817;28;20030;-42
2022/06/17 01:10:09;;;;;;;8.52;2.80;;;;;;;;;;5035785;28;20044;-44
2022/06/17 01:13:02;;;;;;;5.95;2.65;;;;;;;;;;5030851;28;20049;-44
2022/06/17 01:15:31;;;;;;;5.90;2.78;;;;;;;;;;5028421;28;20377;-43
2022/06/17 01:17:57;;;;;;;2.67;2.35;;;;;;;;;;5033240;28;20120;-43
2022/06/17 01:20:25;;;;;;;9.20;2.63;;;;;;;;;;5033424;28;20175;-43
2022/06/17 01:22:57;;;;;;;5.10;2.40;;;;;;;;;;5031892;28;20021;-43
2022/06/17 01:25:27;;;;;;;4.82;2.45;;;;;;;;;;5025043;28;20044;-45
2022/06/17 01:27:55;;;;;;;4.97;2.40;;;;;;;;;;5021617;28;20037;-43
2022/06/17 01:30:25;;;;;;;4.90;2.60;;;;;;;;;;5029328;28;20031;-44
2022/06/17 01:33:07;;;;;;;6.38;2.60;;;;;;;;;;5032163;28;20071;-44
2022/06/17 01:35:45;;;;;;;7.53;2.25;;;;;;;;;;5030627;28;20037;-41
2022/06/17 01:38:12;;;;;;;7.82;2.50;;;;;;;;;;5028115;28;20167;-43
2022/06/17 01:40:38;;;;;;;9.13;2.72;;;;;;;;;;5030078;28;20047;-44
2022/06/17 01:43:08;;;;;;;5.25;2.78;;;;;;;;;;5028264;28;20479;-43
2022/06/17 01:45:36;;;;;;;7.22;2.97;;;;;;;;;;5029518;28;20032;-43
2022/06/17 01:48:03;;;;;;;4.97;2.65;;;;;;;;;;5033044;28;20170;-43
2022/06/17 01:50:29;;;;;;;5.55;2.55;;;;;;;;;;5033534;28;20047;-43
2022/06/17 01:53:02;;;;;;;9.43;3.28;;;;;;;;;;5030861;28;20150;-45
2022/06/17 01:55:41;;;;;;;9.52;3.45;;;;;;;;;;5030623;28;20038;-43
2022/06/17 01:58:13;;;;;;;9.75;3.10;;;;;;;;;;5032913;28;20025;-43
2022/06/17 02:00:41;;;;;;;6.43;2.55;;;;;;;;;;5032731;28;20155;-43
2022/06/17 02:03:16;;;;;;;10.18;3.50;;;;;;;;;;5029545;28;20037;-43
2022/06/17 02:05:47;;;;;;;10.15;3.40;;;;;;;;;;5030448;28;20528;-43
2022/06/17 02:08:13;;;;;;;8.30;2.70;;;;;;;;;;5026733;28;20029;-41
2022/06/17 02:10:42;;;;;;;6.35;2.50;;;;;;;;;;5031512;28;20045;-44
2022/06/17 02:13:09;;;;;;;6.70;3.15;;;;;;;;;;5031080;28;20373;-43
2022/06/17 02:15:37;;;;;;;12.68;3.33;;;;;;;;;;5024786;28;20032;-42
2022/06/17 02:18:09;;;;;;;8.73;2.85;;;;;;;;;;5033949;28;20040;-42
2022/06/17 02:20:38;;;;;;;3.28;2.55;;;;;;;;;;5033463;28;20938;-42
2022/06/17 02:23:04;;;;;;;7.13;2.75;;;;;;;;;;5021774;28;20041;-43
2022/06/17 02:25:36;;;;;;;4.38;2.70;;;;;;;;;;5029918;28;20499;-45
2022/06/17 02:28:02;;;;;;;5.18;2.63;;;;;;;;;;5025836;28;20032;-43
2022/06/17 02:30:30;;;;;;;9.93;2.80;;;;;;;;;;5030340;28;20036;-43
2022/06/17 02:33:03;;;;;;;8.32;2.70;;;;;;;;;;5030745;28;20525;-43
2022/06/17 02:35:36;;;;;;;11.38;3.17;;;;;;;;;;5030510;28;20029;-43
2022/06/17 02:38:03;;;;;;;2.78;2.58;;;;;;;;;;5030236;28;20440;-46
2022/06/17 02:40:33;;;;;;;6.45;2.72;;;;;;;;;;5030052;28;20417;-43
2022/06/17 02:43:09;;;;;;;6.22;3.15;;;;;;;;;;5025025;28;20034;-43
2022/06/17 02:45:40;;;;;;;8.63;3.33;;;;;;;;;;5024296;28;20029;-43
2022/06/17 02:48:21;;;;;;;7.13;3.13;;;;;;;;;;5023556;28;20039;-42
2022/06/17 02:50:47;;;;;;;10.45;3.63;;;;;;;;;;5030043;28;20065;-42
2022/06/17 02:53:14;;;;;;;7.78;3.60;;;;;;;;;;5026698;28;20050;-42
2022/06/17 02:55:42;;;;;;;13.57;4.03;;;;;;;;;;5024864;28;20040;-44
2022/06/17 02:58:29;;;;;;;6.63;3.70;;;;;;;;;;5025436;28;20072;-43
2022/06/17 03:00:57;;;;;;;8.48;3.63;;;;;;;;;;5029795;28;20033;-43
2022/06/17 03:03:23;;;;;;;3.75;3.40;;;;;;;;;;5030305;28;20109;-43
2022/06/17 03:05:49;;;;;;;11.57;4.53;;;;;;;;;;5028005;28;20033;-43
2022/06/17 03:08:25;;;;;;;10.63;3.10;;;;;;;;;;5024427;28;20026;-43
2022/06/17 03:10:54;;;;;;;5.68;3.58;;;;;;;;;;5029307;28;20029;-42
2022/06/17 03:13:28;;;;;;;7.88;4.07;;;;;;;;;;5029159;28;20025;-42
2022/06/17 03:15:58;;;;;;;8.55;4.05;;;;;;;;;;5024402;28;21070;-42
2022/06/17 03:18:26;;;;;;;7.45;4.05;;;;;;;;;;5028672;28;20036;-42
2022/06/17 03:20:53;;;;;;;9.15;4.10;;;;;;;;;;5032440;28;20036;-43
2022/06/17 03:23:24;;;;;;;9.38;4.15;;;;;;;;;;5026042;28;20068;-42
2022/06/17 03:25:58;;;;;;;6.18;3.88;;;;;;;;;;5034373;28;20033;-43
2022/06/17 03:28:36;;;;;;;5.97;3.85;;;;;;;;;;5029536;28;20035;-43
2022/06/17 03:31:27;;;;;;;11.48;4.50;;;;;;;;;;5024569;28;20082;-43
2022/06/17 03:33:58;;;;;;;13.40;4.07;;;;;;;;;;5025306;28;20108;-42
2022/06/17 03:36:44;;;;;;;19.88;3.80;;;;;;;;;;5022271;28;20025;-44
2022/06/17 03:39:21;;;;;;;8.30;3.90;;;;;;;;;;5032956;28;20049;-44
2022/06/17 03:41:55;;;;;;;9.32;4.35;;;;;;;;;;5028536;28;20528;-43
2022/06/17 03:44:28;;;;;;;7.97;4.05;;;;;;;;;;5023548;28;20043;-43
2022/06/17 03:47:14;;;;;;;10.10;4.18;;;;;;;;;;5035433;28;20024;-42
2022/06/17 03:49:53;;;;;;;9.60;4.00;;;;;;;;;;5030913;28;20017;-43
2022/06/17 03:52:37;;;;;;;5.38;4.03;;;;;;;;;;5035776;28;20091;-43
2022/06/17 03:55:03;;;;;;;12.18;4.22;;;;;;;;;;5030916;28;20101;-42
2022/06/17 03:57:30;;;;;;;5.97;3.40;;;;;;;;;;5027920;28;20118;-42
2022/06/17 03:59:58;;;;;;;5.10;3.58;;;;;;;;;;5027938;28;20476;-42
2022/06/17 04:02:29;;;;;;;7.22;3.70;;;;;;;;;;5031836;28;20037;-44
2022/06/17 04:04:55;;;;;;;11.30;4.20;;;;;;;;;;5033842;28;20486;-40
2022/06/17 04:07:21;;;;;;;16.30;4.28;;;;;;;;;;5035111;28;20143;-43
2022/06/17 04:09:48;;;;;;;13.18;4.35;;;;;;;;;;5034446;28;20152;-43
2022/06/17 04:12:19;;;;;;;6.22;3.63;;;;;;;;;;5028936;28;20478;-44
2022/06/17 04:15:34;;;;;;;13.02;4.22;;;;;;;;;;5028829;28;20041;-44
2022/06/17 04:17:59;;;;;;;6.53;3.45;;;;;;;;;;5029879;28;20086;-44
2022/06/17 04:20:50;;;;;;;6.28;3.65;;;;;;;;;;5034744;28;20025;-42
2022/06/17 04:23:18;;;;;;;7.75;4.07;;;;;;;;;;5033802;28;20490;-44
2022/06/17 04:25:50;;;;;;;14.55;4.18;;;;;;;;;;5032919;28;20041;-42
2022/06/17 04:28:20;;;;;;;;;;;;;;;;;;5034477;28;20125;-47
2022/06/17 04:30:50;;;;;;;8.85;4.20;;;;;;;;;;5031717;28;20389;-44
2022/06/17 04:33:28;;;;;;;8.88;3.88;;;;;;;;;;5030185;28;20036;-43
2022/06/17 04:36:11;;;;;;;5.75;3.42;;;;;;;;;;5030528;28;20044;-42
2022/06/17 04:38:49;;;;;;;4.53;3.47;;;;;;;;;;5031550;28;20038;-45
2022/06/17 04:41:18;;;;;;;7.80;3.65;;;;;;;;;;5026800;28;20132;-44
2022/06/17 04:43:47;;;;;;;7.82;4.30;;;;;;;;;;5031979;28;20037;-44
2022/06/17 04:46:18;;;;;;;15.52;4.15;;;;;;;;;;5031185;28;20025;-41
2022/06/17 04:48:44;;;;;;;8.90;4.13;;;;;;;;;;5022327;28;20104;-42
2022/06/17 04:51:11;;;;;;;6.65;3.75;;;;;;;;;;5034059;28;20029;-47
2022/06/17 04:53:42;;;;;;;5.65;4.05;;;;;;;;;;5029890;28;20069;-43
2022/06/17 04:56:16;;;;;;;7.15;4.15;;;;;;;;;;5032903;28;20037;-42
2022/06/17 04:58:41;;;;;;;12.02;4.10;;;;;;;;;;5028668;28;20029;-44
2022/06/17 05:01:16;;;;;;;8.55;3.80;;;;;;;;;;5027272;28;20029;-43
2022/06/17 05:03:41;;;;;;;8.65;4.50;;;;;;;;;;5027232;28;20397;-45
2022/06/17 05:06:07;;;;;;;9.48;4.25;;;;;;;;;;5026340;28;20026;-45
2022/06/17 05:08:38;;;;;;;8.52;4.28;;;;;;;;;;5036890;28;20021;-44
2022/06/17 05:11:30;;;;;;;9.40;4.00;;;;;;;;;;5035685;28;20033;-43
2022/06/17 05:14:32;;;;;;;8.52;4.40;;;;;;;;;;5032161;28;20510;-43
2022/06/17 05:16:58;;;;;;;9.02;4.10;;;;;;;;;;5030026;28;20041;-43
2022/06/17 05:19:24;;;;;;;4.28;3.50;;;;;;;;;;5028832;28;20089;-44
2022/06/17 05:21:49;;;;;;;11.43;3.80;;;;;;;;;;5035861;28;20022;-43
2022/06/17 05:24:15;;;;;;;7.38;4.13;;;;;;;;;;5022244;28;20109;-44
2022/06/17 05:26:41;;;;;;;15.15;3.92;;;;;;;;;;5026174;28;20236;-42
2022/06/17 05:29:09;;;;;;;4.57;4.18;;;;;;;;;;5029938;28;20494;-42
2022/06/17 05:31:35;;;;;;;10.13;3.80;;;;;;;;;;5027651;28;20124;-43
2022/06/17 05:34:02;;;;;;;6.53;3.53;;;;;;;;;;5025831;28;20037;-42
2022/06/17 05:36:28;;;;;;;17.25;4.20;;;;;;;;;;5028840;28;20034;-43
2022/06/17 05:38:54;;;;;;;8.20;3.78;;;;;;;;;;5026821;28;20215;-43
2022/06/17 05:41:23;;;;;;;4.07;3.38;;;;;;;;;;5028076;28;20033;-43
2022/06/17 05:43:49;;;;;;;5.63;3.88;;;;;;;;;;5031354;28;20374;-42
2022/06/17 05:46:16;;;;;;;5.80;3.88;;;;;;;;;;5031232;28;20040;-44
2022/06/17 05:48:41;;;;;;;6.82;3.45;;;;;;;;;;5017917;28;20033;-43
2022/06/17 05:51:09;;;;;;;7.47;3.60;;;;;;;;;;5022036;28;20029;-42
2022/06/17 05:53:35;;;;;;;6.65;3.38;;;;;;;;;;5027089;28;20038;-43
2022/06/17 05:56:01;;;;;;;6.32;3.20;;;;;;;;;;5032480;28;20037;-43
2022/06/17 05:58:27;;;;;;;5.50;3.17;;;;;;;;;;5032918;28;20069;-43
2022/06/17 06:00:53;;;;;;;10.18;3.42;;;;;;;;;;5031448;28;20474;-42
2022/06/17 06:03:23;;;;;;;8.30;3.38;;;;;;;;;;5029007;28;20505;-44
2022/06/17 06:05:48;;;;;;;4.38;3.35;;;;;;;;;;5025708;28;20052;-42
2022/06/17 06:08:14;;;;;;;5.15;3.00;;;;;;;;;;5031039;28;20033;-43
2022/06/17 06:10:41;;;;;;;3.42;3.10;;;;;;;;;;5033228;28;20025;-43
2022/06/17 06:13:07;;;;;;;10.38;3.40;;;;;;;;;;5025695;28;20026;-43
2022/06/17 06:15:36;;;;;;;6.72;3.13;;;;;;;;;;5020951;28;20029;-43
2022/06/17 06:18:02;;;;;;;6.47;3.40;;;;;;;;;;5013993;28;20065;-45
2022/06/17 06:20:28;;;;;;;5.93;3.33;;;;;;;;;;5018614;28;20026;-45
2022/06/17 06:22:54;;;;;;;3.85;2.92;;;;;;;;;;5018375;28;20153;-44
2022/06/17 06:25:20;;;;;;;7.88;3.28;;;;;;;;;;5023850;28;20037;-44
2022/06/17 06:27:46;;;;;;;15.73;3.85;;;;;;;;;;5047010;28;20566;-51
2022/06/17 06:30:24;;;;;;;8.88;3.38;;;;;;;;;;5026602;28;20112;-51
2022/06/17 06:33:10;;;;;;;13.85;3.58;;;;;;;;;;5029365;28;20034;-45
2022/06/17 06:35:56;;;;;;;5.68;3.15;;;;;;;;;;5020761;28;20374;-44
2022/06/17 06:38:21;;;;;;;3.05;2.85;;;;;;;;;;5017593;28;20060;-46
2022/06/17 06:40:47;;;;;;;4.47;3.10;;;;;;;;;;5017058;28;20455;-50
2022/06/17 06:43:18;;;;;;;5.10;3.65;;;;;;;;;;5017083;28;20099;-48
2022/06/17 06:45:47;;;;;;;12.60;4.50;;;;;;;;;;5007702;28;20040;-47
2022/06/17 06:48:15;;;;;;;17.23;5.10;;;;;;;;;;5011519;28;21527;-44
2022/06/17 06:50:41;;;;;;;16.08;5.05;;;;;;;;;;5022526;28;20029;-44
2022/06/17 06:53:08;;;;;;;17.98;5.60;;;;;;;;;;5014919;28;20088;-43
2022/06/17 06:55:34;;;;;;;19.33;5.68;;;;;;;;;;5017499;28;20071;-41
2022/06/17 06:58:08;;;;;;;12.88;5.25;;;;;;;;;;5013146;28;20034;-45
2022/06/17 07:00:38;;;;;;;10.88;5.47;;;;;;;;;;5023137;28;20029;-43
2022/06/17 07:03:04;;;;;;;16.63;5.47;;;;;;;;;;5026702;28;20030;-44
2022/06/17 07:05:31;;;;;;;13.63;5.45;;;;;;;;;;5026781;28;20033;-47
2022/06/17 07:07:57;;;;;;;11.15;5.15;;;;;;;;;;5029267;28;20061;-51
2022/06/17 07:10:26;;;;;;;17.83;5.70;;;;;;;;;;5028289;28;20025;-44
2022/06/17 07:12:52;;;;;;;10.23;5.47;;;;;;;;;;5036259;28;20029;-43
2022/06/17 07:15:18;;;;;;;18.75;5.72;;;;;;;;;;5025478;28;20395;-46
2022/06/17 07:18:05;;;;;;;26.33;6.43;;;;;;;;;;5024924;28;20545;-45
2022/06/17 07:20:37;;;;;;;9.82;5.47;;;;;;;;;;5020865;28;20123;-44
2022/06/17 07:23:04;;;;;;;;;;;;;;;;;;5026353;28;20033;-43
2022/06/17 07:25:29;;;;;;;11.40;5.45;;;;;;;;;;5023069;28;20332;-43
2022/06/17 07:27:55;;;;;;;18.80;5.30;;;;;;;;;;5028103;28;20033;-43
2022/06/17 07:30:21;;;;;;;18.05;5.82;;;;;;;;;;5029711;28;20033;-43
2022/06/17 07:32:47;;;;;;;16.40;6.07;;;;;;;;;;5035852;28;20027;-43
2022/06/17 07:35:14;;;;;;;17.23;5.90;;;;;;;;;;5033605;28;20029;-45
2022/06/17 07:40:28;;;;;;;15.55;5.13;;;;;;;;;;5026755;28;20038;-43
2022/06/17 07:42:55;;;;;;;22.58;4.90;;;;;;;;;;5028576;28;20052;-41
2022/06/17 07:45:21;;;;;;;17.10;5.22;;;;;;;;;;5017444;28;20046;-46
2022/06/17 07:47:49;;;;;;;20.38;4.93;;;;;;;;;;5018330;28;20660;-44
2022/06/17 07:50:20;;;;;;;16.80;5.13;;;;;;;;;;5025459;28;20056;-44
2022/06/17 07:52:46;;;;;;;11.75;5.28;;;;;;;;;;5018418;28;20042;-43
2022/06/17 07:55:12;;;;;;;14.85;5.25;;;;;;;;;;5023424;28;20501;-43
2022/06/17 07:57:38;;;;;;;14.98;4.72;;;;;;;;;;5018934;28;20100;-43
2022/06/17 08:00:12;;;;;;;16.35;4.68;;;;;;;;;;5026904;28;20082;-45
2022/06/17 08:02:39;;;;;;;16.73;4.97;;;;;;;;;;5027927;28;20401;-43
2022/06/17 08:05:05;;;;;;;12.45;4.78;;;;;;;;;;5031077;28;20056;-45
2022/06/17 08:07:31;;;;;;;9.02;4.53;;;;;;;;;;5034824;28;20025;-45
2022/06/17 08:09:56;;;;;;;6.82;4.43;;;;;;;;;;5031914;28;20543;-47
2022/06/17 08:12:22;;;;;;;7.93;4.20;;;;;;;;;;5025414;28;20392;-45
2022/06/17 08:14:49;;;;;;;11.27;3.85;;;;;;;;;;5025970;28;20034;-43
2022/06/17 08:17:16;;;;;;;6.82;3.83;;;;;;;;;;5026815;28;20034;-43
2022/06/17 08:19:46;;;;;;;16.55;4.78;;;;;;;;;;5020841;28;20094;-45
2022/06/17 08:22:12;;;;;;;10.30;4.38;;;;;;;;;;5018786;28;20033;-43
2022/06/17 08:24:38;;;;;;;22.50;4.63;;;;;;;;;;5031127;28;20041;-44
2022/06/17 08:27:04;;;;;;;11.63;4.47;;;;;;;;;;5022972;28;20544;-43
2022/06/17 08:29:30;;;;;;;11.98;4.22;;;;;;;;;;5016178;28;20022;-44
2022/06/17 08:32:44;;;;;;;21.17;4.50;;;;;;;;;;5018055;28;20058;-45
2022/06/17 08:34:43;;;;;;;7.20;4.57;;;;;;;;;;5020042;28;20398;-43
2022/06/17 08:37:10;;;;;;;18.77;5.18;;;;;;;;;;5019057;28;20044;-45
2022/06/17 08:39:36;;;;;;;18.45;5.72;;;;;;;;;;5021727;28;20033;-44
2022/06/17 08:42:08;;;;;;;21.85;5.65;;;;;;;;;;5026187;28;20032;-43
2022/06/17 08:44:51;;;;;;;20.00;5.50;;;;;;;;;;5021635;28;20502;-43
2022/06/17 08:48:01;;;;;;;16.77;5.55;;;;;;;;;;5030689;28;20029;-43
2022/06/17 08:51:12;;;;;;;14.90;5.03;;;;;;;;;;5028125;28;20088;-44
2022/06/17 08:53:55;;;;;;;13.35;5.07;;;;;;;;;;4973266;28;20475;-43
2022/06/17 08:56:29;;;;;;;12.70;4.88;;;;;;;;;;4961985;28;20035;-49
2022/06/17 08:59:18;;;;;;;18.50;5.68;;;;;;;;;;4973688;28;20078;-48
2022/06/17 09:01:49;;;;;;;15.55;5.68;;;;;;;;;;4971677;28;20114;-45
2022/06/17 09:04:17;;;;;;;13.85;5.72;;;;;;;;;;4976751;28;20076;-46
2022/06/17 09:07:04;;;;;;;15.20;5.68;;;;;;;;;;4971629;28;20030;-47
2022/06/17 09:09:48;;;;;;;10.38;5.32;;;;;;;;;;4960790;28;20046;-45
2022/06/17 09:12:22;;;;;;;18.13;4.68;;;;;;;;;;4969477;28;20058;-43
2022/06/17 09:15:25;;;;;;;10.38;4.47;;;;;;;;;;4967583;28;20026;-44
2022/06/17 09:18:09;;;;;;;15.65;4.78;;;;;;;;;;4972827;28;20030;-43
2022/06/17 09:20:37;;;;;;;12.35;4.18;;;;;;;;;;4965239;28;20039;-50
2022/06/17 09:23:05;;;;;;;9.10;4.40;;;;;;;;;;4960465;28;20042;-45
2022/06/17 09:25:43;;;;;;;8.25;5.00;;;;;;;;;;4974748;28;21587;-46
2022/06/17 09:28:14;;;;;;;5.95;3.55;;;;;;;;;;4979040;28;20030;-43
2022/06/17 09:30:49;;;;;;;11.73;4.63;;;;;;;;;;5025760;28;20022;-50
2022/06/17 09:33:28;;;;;;;9.43;3.90;;;;;;;;;;5029157;28;20032;-44
2022/06/17 09:36:18;;;;;;;14.32;4.57;;;;;;;;;;5030962;28;20025;-45
2022/06/17 09:39:04;;;;;;;14.57;4.57;;;;;;;;;;5026785;28;20030;-44
2022/06/17 09:41:35;;;;;;;9.40;3.83;;;;;;;;;;5032506;28;20034;-48
2022/06/17 09:44:07;;;;;;;17.50;4.53;;;;;;;;;;5034681;28;20034;-46
2022/06/17 09:46:49;;;;;;;13.98;3.80;;;;;;;;;;5033360;28;20063;-46
2022/06/17 09:49:47;;;;;;;7.35;3.83;;;;;;;;;;5030078;28;20042;-43
2022/06/17 09:52:21;;;;;;;6.95;3.70;;;;;;;;;;5025845;28;20028;-48
2022/06/17 09:54:57;;;;;;;11.40;3.83;;;;;;;;;;5028176;28;20079;-44
2022/06/17 09:57:25;;;;;;;9.82;3.63;;;;;;;;;;5022624;28;20032;-44
2022/06/17 09:59:55;;;;;;;20.60;3.97;;;;;;;;;;5029893;28;20571;-45
2022/06/17 10:02:51;;;;;;;9.43;3.75;;;;;;;;;;5025855;28;20101;-43
2022/06/17 10:05:32;;;;;;;10.70;3.13;;;;;;;;;;5029598;28;20040;-44
2022/06/17 10:08:21;;;;;;;17.13;3.72;;;;;;;;;;5016307;28;20044;-45
2022/06/17 10:11:11;;;;;;;4.25;3.22;;;;;;;;;;5027750;28;20112;-46
2022/06/17 10:13:52;;;;;;;8.70;3.40;;;;;;;;;;5015576;28;20064;-45
2022/06/17 10:19:53;;;;;;;9.98;3.20;;;;;;;;;;5019786;28;20124;-44
2022/06/17 10:22:27;;;;;;;5.45;3.13;;;;;;;;;;4960440;28;20724;-46
2022/06/17 10:24:59;;;;;;;9.63;3.60;;;;;;;;;;4960800;28;20587;-44
2022/06/17 10:27:51;;;;;;;19.90;3.95;;;;;;;;;;4966832;28;20086;-44
2022/06/17 10:30:47;;;;;;;9.95;3.35;;;;;;;;;;4972198;28;20476;-43
2022/06/17 10:33:15;;;;;;;8.35;3.47;;;;;;;;;;4972613;28;20202;-44
2022/06/17 10:35:43;;;;;;;16.17;3.63;;;;;;;;;;4974450;28;20063;-48
2022/06/17 10:38:17;;;;;;;14.55;4.05;;;;;;;;;;4962530;28;20141;-45
2022/06/17 10:40:43;;;;;;;11.95;4.00;;;;;;;;;;4967787;28;20526;-44
2022/06/17 10:43:14;;;;;;;11.40;3.20;;;;;;;;;;4964714;28;20030;-47
2022/06/17 10:45:40;;;;;;;5.65;3.08;;;;;;;;;;4955639;28;20046;-43
2022/06/17 10:48:20;;;;;;;8.15;3.25;;;;;;;;;;4961475;28;20041;-43
2022/06/17 10:50:47;;;;;;;10.55;3.50;;;;;;;;;;4956202;28;20141;-47
2022/06/17 10:53:28;;;;;;;13.43;3.70;;;;;;;;;;4959977;28;20045;-45
2022/06/17 10:56:03;;;;;;;13.32;3.40;;;;;;;;;;4960608;28;20597;-44
2022/06/17 10:58:33;;;;;;;12.60;3.22;;;;;;;;;;4985915;28;20139;-45
2022/06/17 11:01:01;;;;;;;6.57;2.90;;;;;;;;;;5022639;28;20029;-46
2022/06/17 11:03:27;;;;;;;5.53;3.00;;;;;;;;;;5022959;28;20544;-48
2022/06/17 11:06:13;;;;;;;7.13;3.05;;;;;;;;;;5013343;28;20084;-48
2022/06/17 11:08:54;;;;;;;11.18;3.00;;;;;;;;;;5015998;28;20049;-44
2022/06/17 11:14:39;;;;;;;9.75;3.33;;;;;;;;;;5016752;28;20095;-45
2022/06/17 11:17:17;;;;;;;6.80;3.33;;;;;;;;;;5022542;28;20591;-45
2022/06/17 11:19:45;;;;;;;13.10;3.38;;;;;;;;;;5019144;28;20072;-44
2022/06/17 11:22:26;;;;;;;7.50;3.00;;;;;;;;;;5029511;28;20025;-49
2022/06/17 11:24:56;;;;;;;4.50;2.80;;;;;;;;;;5029943;28;20087;-47
2022/06/17 11:27:36;;;;;;;9.10;3.13;;;;;;;;;;5027313;28;20517;-47
2022/06/17 11:30:34;;;;;;;12.10;3.47;;;;;;;;;;5021178;28;20052;-46
2022/06/17 11:33:01;;;;;;;11.77;2.80;;;;;;;;;;5019061;28;20102;-48
2022/06/17 11:35:32;;;;;;;9.63;2.70;;;;;;;;;;5028571;28;20022;-45
2022/06/17 11:38:01;;;;;;;12.98;3.25;;;;;;;;;;5025844;28;20383;-44
2022/06/17 11:40:47;;;;;;;7.47;3.38;;;;;;;;;;5028604;28;20029;-50
2022/06/17 11:43:26;;;;;;;13.35;3.08;;;;;;;;;;5027628;28;20083;-46
2022/06/17 11:45:52;;;;;;;15.95;3.92;;;;;;;;;;5013977;28;22299;-50
2022/06/17 11:48:20;;;;;;;10.55;3.53;;;;;;;;;;5021214;28;20029;-49
2022/06/17 11:51:13;;;;;;;11.40;3.80;;;;;;;;;;5029924;28;20140;-46
2022/06/17 11:53:50;;;;;;;14.50;3.22;;;;;;;;;;5030659;28;20445;-45
2022/06/17 11:56:33;;;;;;;18.10;3.40;;;;;;;;;;5031997;28;20022;-44
2022/06/17 11:59:20;;;;;;;13.82;3.33;;;;;;;;;;5030814;28;20033;-50
2022/06/17 12:01:55;;;;;;;14.18;3.35;;;;;;;;;;5030194;28;20025;-44
2022/06/17 12:04:33;;;;;;;23.80;3.80;;;;;;;;;;5037429;28;20037;-44
2022/06/17 12:06:58;;;;;;;8.38;3.33;;;;;;;;;;5017794;28;20034;-49
2022/06/17 12:09:36;;;;;;;10.13;3.17;;;;;;;;;;5028301;28;20079;-44
2022/06/17 12:12:08;;;;;;;17.42;2.90;;;;;;;;;;5027463;28;20033;-45
2022/06/17 12:14:46;;;;;;;14.35;3.17;;;;;;;;;;5031306;28;20122;-44
2022/06/17 12:17:14;;;;;;;18.23;3.33;;;;;;;;;;5031616;28;20039;-44
2022/06/17 12:19:40;;;;;;;14.07;2.78;;;;;;;;;;5016955;28;20470;-45
2022/06/17 12:22:12;;;;;;;10.80;2.60;;;;;;;;;;5030410;28;20087;-48
2022/06/17 12:24:48;;;;;;;13.57;3.13;;;;;;;;;;5029558;28;20041;-44
2022/06/17 12:27:31;;;;;;;14.68;3.00;;;;;;;;;;5026251;28;20034;-46
2022/06/17 12:30:05;;;;;;;16.58;3.17;;;;;;;;;;5017903;28;20116;-44
2022/06/17 12:32:41;;;;;;;15.68;3.08;;;;;;;;;;5024393;28;20026;-47
2022/06/17 12:35:16;;;;;;;17.02;3.40;;;;;;;;;;5029520;28;20378;-45
2022/06/17 12:38:03;;;;;;;14.95;3.63;;;;;;;;;;5033986;28;20028;-51
2022/06/17 12:40:49;;;;;;;15.18;3.50;;;;;;;;;;5034978;28;20025;-48
2022/06/17 12:43:40;;;;;;;13.45;3.30;;;;;;;;;;5028766;28;20029;-45
2022/06/17 12:46:20;;;;;;;17.08;4.30;;;;;;;;;;5023692;28;20112;-47
2022/06/17 12:55:24;;;;;;;13.80;3.15;;;;;;;;;;5033011;28;20099;-44
2022/06/17 12:57:56;;;;;;;10.45;3.53;;;;;;;;;;5034606;28;20056;-43
2022/06/17 13:00:31;;;;;;;14.73;3.40;;;;;;;;;;5032893;28;20394;-44
2022/06/17 13:02:59;;;;;;;8.23;3.33;;;;;;;;;;5028522;28;20037;-43
2022/06/17 13:05:40;;;;;;;10.20;3.08;;;;;;;;;;5019494;28;20033;-45
2022/06/17 13:08:22;;;;;;;9.65;3.00;;;;;;;;;;5013421;28;20041;-44
2022/06/17 13:10:48;;;;;;;7.97;3.35;;;;;;;;;;5028638;28;20030;-45
2022/06/17 13:13:16;;;;;;;11.20;3.10;;;;;;;;;;5032150;28;20038;-43
2022/06/17 13:15:51;;;;;;;14.35;3.17;;;;;;;;;;5024067;28;20421;-45
2022/06/17 13:18:23;;;;;;;25.75;3.30;;;;;;;;;;5022556;28;20030;-44
2022/06/17 13:21:06;;;;;;;12.77;3.47;;;;;;;;;;5025990;28;20104;-50
2022/06/17 13:23:42;;;;;;;7.85;2.92;;;;;;;;;;5025681;28;20401;-44
2022/06/17 13:26:19;;;;;;;17.88;3.30;;;;;;;;;;5023414;28;20029;-43
2022/06/17 13:29:01;;;;;;;9.55;2.83;;;;;;;;;;5021849;28;20394;-44
2022/06/17 13:31:41;;;;;;;11.82;2.85;;;;;;;;;;5024376;28;20057;-44
2022/06/17 13:34:17;;;;;;;11.35;3.00;;;;;;;;;;5027937;28;20044;-44
2022/06/17 13:36:56;;;;;;;9.60;2.97;;;;;;;;;;5012576;28;20124;-43
2022/06/17 13:39:30;;;;;;;10.57;2.58;;;;;;;;;;5018918;28;20553;-44
2022/06/17 13:42:00;;;;;;;22.80;4.55;;;;;;;;;;5035023;28;20086;-44
2022/06/17 13:45:04;;;;;;;7.60;2.67;;;;;;;;;;5029592;28;20033;-44
2022/06/17 13:47:51;;;;;;;15.18;2.85;;;;;;;;;;5024852;28;20122;-44
2022/06/17 13:50:55;;;;;;;11.85;2.63;;;;;;;;;;5022791;28;20111;-44
2022/06/17 13:53:51;;;;;;;6.30;2.65;;;;;;;;;;5011673;28;20029;-43
2022/06/17 13:56:35;;;;;;;9.93;2.80;;;;;;;;;;5021162;28;20037;-45
2022/06/17 13:59:05;;;;;;;6.05;2.70;;;;;;;;;;5019511;28;20498;-47
2022/06/17 14:01:42;;;;;;;6.00;2.53;;;;;;;;;;5014748;28;20037;-44
2022/06/17 14:04:18;;;;;;;8.40;2.50;;;;;;;;;;5016785;28;20607;-45
2022/06/17 14:06:46;;;;;;;8.52;2.45;;;;;;;;;;5023725;28;20396;-49
2022/06/17 14:09:38;;;;;;;10.60;2.72;;;;;;;;;;5012878;28;20095;-49
2022/06/17 14:12:04;;;;;;;;;;;;;;;;;;5024777;28;20045;-45
2022/06/17 14:14:31;;;;;;;4.53;2.78;;;;;;;;;;5023379;28;19972;-48
2022/06/17 14:17:10;;;;;;;11.40;2.72;;;;;;;;;;5010877;28;20069;-45
2022/06/17 14:19:42;;;;;;;14.13;2.83;;;;;;;;;;5028082;28;20033;-51
2022/06/17 14:22:14;;;;;;;7.60;2.72;;;;;;;;;;5025144;28;20036;-51
2022/06/17 14:24:43;;;;;;;7.13;2.90;;;;;;;;;;5026442;28;20128;-48
2022/06/17 14:27:28;;;;;;;6.07;2.60;;;;;;;;;;5019567;28;20034;-47
2022/06/17 14:30:12;;;;;;;10.80;2.72;;;;;;;;;;5024037;28;20028;-46
2022/06/17 14:32:44;;;;;;;7.03;2.92;;;;;;;;;;5025208;28;20034;-45
2022/06/17 14:35:27;;;;;;;10.98;3.10;;;;;;;;;;5016063;28;20038;-46
2022/06/17 14:38:01;;;;;;;13.25;3.10;;;;;;;;;;5022049;28;20033;-45
2022/06/17 14:40:31;;;;;;;7.25;3.00;;;;;;;;;;5029350;28;20084;-47
2022/06/17 14:43:11;;;;;;;8.80;2.95;;;;;;;;;;5023006;28;20066;-44
2022/06/17 14:45:56;;;;;;;6.77;3.00;;;;;;;;;;5018167;28;20041;-45
2022/06/17 14:48:38;;;;;;;10.05;2.75;;;;;;;;;;5019153;28;20034;-48
2022/06/17 14:51:35;;;;;;;4.32;2.35;;;;;;;;;;5023333;28;20041;-44
2022/06/17 14:54:13;;;;;;;5.70;2.58;;;;;;;;;;5023047;28;20048;-44
2022/06/17 14:56:39;;;;;;;7.63;2.75;;;;;;;;;;5027550;28;20497;-43
2022/06/17 14:59:18;;;;;;;5.32;2.90;;;;;;;;;;5018593;28;20025;-46
2022/06/17 15:01:59;;;;;;;9.05;3.22;;;;;;;;;;5032969;28;20053;-45
2022/06/17 15:04:25;;;;;;;;;;;;;;;;;;5035206;28;20075;-43
2022/06/17 15:06:52;;;;;;;11.88;3.08;;;;;;;;;;5031680;28;20387;-45
2022/06/17 15:09:27;;;;;;;6.03;3.38;;;;;;;;;;5027622;28;20025;-43
2022/06/17 15:11:58;;;;;;;7.00;3.22;;;;;;;;;;5027706;28;20029;-43
2022/06/17 15:14:24;;;;;;;6.35;3.00;;;;;;;;;;5027174;28;20056;-45
2022/06/17 15:16:54;;;;;;;6.85;3.15;;;;;;;;;;5025802;28;20034;-43
2022/06/17 15:19:26;;;;;;;7.57;3.28;;;;;;;;;;5028081;28;20030;-43
2022/06/17 15:22:02;;;;;;;8.25;2.85;;;;;;;;;;5034570;28;20025;-46
2022/06/17 15:24:54;;;;;;;12.38;2.80;;;;;;;;;;5029288;28;20036;-43
2022/06/17 15:27:48;;;;;;;5.55;2.60;;;;;;;;;;5031691;28;20116;-45
2022/06/17 15:30:14;;;;;;;12.00;2.92;;;;;;;;;;5027926;28;20549;-43
2022/06/17 15:32:42;;;;;;;6.72;2.67;;;;;;;;;;5033511;28;20232;-47